createdAt,value
2023-01-25T00:01:22.275Z,103207.88
2023-01-25T00:03:51.251Z,103196.38
2023-01-25T00:06:19.900Z,103204.38
2023-01-25T00:08:52.952Z,103205.19
2023-01-25T00:11:22.291Z,103194.56
2023-01-25T00:13:50.987Z,103189.09
2023-01-25T00:16:19.929Z,103191.59
2023-01-25T00:18:49.702Z,103183.91
2023-01-25T00:21:21.467Z,103183.06
2023-01-25T00:23:52.305Z,103178.63
2023-01-25T00:26:22.048Z,103177.78
2023-01-25T00:28:51.851Z,103188.25
2023-01-25T00:31:33.580Z,103183.88
2023-01-25T00:34:08.483Z,103197.06
2023-01-25T00:36:43.421Z,103190.78
2023-01-25T00:39:15.185Z,103187.31
2023-01-25T00:41:45.755Z,103179.28
2023-01-25T00:44:14.301Z,103175.06
2023-01-25T00:46:45.381Z,103174.13
2023-01-25T00:49:21.934Z,103178.41
2023-01-25T00:51:50.764Z,103168.66
2023-01-25T00:54:21.596Z,103174.97
2023-01-25T00:56:52.795Z,103181.06
2023-01-25T00:59:21.671Z,103175.78
2023-01-25T01:01:50.617Z,103175.59
2023-01-25T01:04:19.712Z,103174.88
2023-01-25T01:06:48.593Z,103173.16
2023-01-25T01:09:19.682Z,103181.13
2023-01-25T01:11:50.069Z,103175.13
2023-01-25T01:14:19.176Z,103177.69
2023-01-25T01:16:48.063Z,103177.78
2023-01-25T01:19:17.432Z,103176.97
2023-01-25T01:21:46.150Z,103184.03
2023-01-25T01:24:14.858Z,103182.31
2023-01-25T01:26:43.566Z,103187.72
2023-01-25T01:29:15.709Z,103187.84
2023-01-25T01:31:44.560Z,103186.19
2023-01-25T01:34:16.020Z,103194.97
2023-01-25T01:36:44.516Z,103190.75
2023-01-25T01:39:13.183Z,103195.13
2023-01-25T01:41:42.223Z,103187.25
2023-01-25T01:44:18.786Z,103195.13
2023-01-25T01:46:54.433Z,103185.47
2023-01-25T01:49:28.305Z,103190.75
2023-01-25T01:52:02.891Z,103182.06
2023-01-25T01:54:38.163Z,103185.59
2023-01-25T01:57:10.600Z,103181.22
2023-01-25T01:59:45.241Z,103170.69
2023-01-25T02:02:15.439Z,103171.66
2023-01-25T02:04:47.809Z,103178.69
2023-01-25T02:07:22.705Z,103169.13
2023-01-25T02:09:52.575Z,103174.41
2023-01-25T02:12:24.491Z,103171.78
2023-01-25T02:14:55.972Z,103175.25
2023-01-25T02:17:29.193Z,103165.59
2023-01-25T02:20:05.552Z,103168.22
2023-01-25T02:22:43.005Z,103169.13
2023-01-25T02:25:15.612Z,103177.00
2023-01-25T02:27:49.388Z,103180.53
2023-01-25T02:30:18.104Z,103179.69
2023-01-25T02:32:46.534Z,103177.81
2023-01-25T02:35:21.291Z,103179.56
2023-01-25T02:37:50.971Z,103177.78
2023-01-25T02:40:21.203Z,103178.69
2023-01-25T02:42:49.894Z,103176.00
2023-01-25T02:45:23.878Z,103189.97
2023-01-25T02:47:52.779Z,103175.94
2023-01-25T02:50:21.550Z,103175.94
2023-01-25T02:52:50.292Z,103172.44
2023-01-25T02:55:20.682Z,103166.31
2023-01-25T02:57:49.503Z,103167.91
2023-01-25T03:00:18.892Z,103168.81
2023-01-25T03:02:47.821Z,103165.41
2023-01-25T03:05:17.099Z,103175.94
2023-01-25T03:07:46.227Z,103175.06
2023-01-25T03:10:14.825Z,103181.22
2023-01-25T03:12:45.872Z,103160.13
2023-01-25T03:15:15.083Z,103159.34
2023-01-25T03:17:43.960Z,103158.50
2023-01-25T03:20:13.860Z,103165.50
2023-01-25T03:22:42.712Z,103169.03
2023-01-25T03:25:11.921Z,103165.53
2023-01-25T03:27:40.770Z,103163.75
2023-01-25T03:30:13.555Z,103172.56
2023-01-25T03:32:46.452Z,103173.50
2023-01-25T03:35:14.999Z,103167.38
2023-01-25T03:37:43.732Z,103169.13
2023-01-25T03:40:13.516Z,103174.31
2023-01-25T03:42:43.242Z,103172.56
2023-01-25T03:45:14.714Z,103181.31
2023-01-25T03:47:43.219Z,103169.94
2023-01-25T03:50:13.390Z,103177.81
2023-01-25T03:52:45.660Z,103167.28
2023-01-25T03:55:14.247Z,103168.09
2023-01-25T03:57:44.164Z,103157.56
2023-01-25T04:00:15.362Z,103162.81
2023-01-25T04:02:43.986Z,103161.88
2023-01-25T04:05:12.681Z,103162.81
2023-01-25T04:07:42.392Z,103165.41
2023-01-25T04:10:12.406Z,103162.75
2023-01-25T04:12:40.932Z,103158.34
2023-01-25T04:15:11.375Z,103164.47
2023-01-25T04:17:41.604Z,103165.31
2023-01-25T04:20:12.233Z,103166.97
2023-01-25T04:22:41.295Z,103158.28
2023-01-25T04:25:11.455Z,103155.66
2023-01-25T04:27:40.503Z,103159.16
2023-01-25T04:30:10.594Z,103159.97
2023-01-25T04:32:41.171Z,103150.31
2023-01-25T04:35:11.040Z,103158.22
2023-01-25T04:37:40.042Z,103148.53
2023-01-25T04:40:11.170Z,103148.53
2023-01-25T04:42:40.827Z,103157.09
2023-01-25T04:45:10.412Z,103141.44
2023-01-25T04:47:40.919Z,103146.75
2023-01-25T04:50:10.681Z,103140.63
2023-01-25T04:52:39.226Z,103138.91
2023-01-25T04:55:08.596Z,103136.28
2023-01-25T04:57:37.570Z,103134.53
2023-01-25T05:00:07.224Z,103153.81
2023-01-25T05:02:37.275Z,103133.63
2023-01-25T05:05:09.013Z,103144.19
2023-01-25T05:07:38.689Z,103127.50
2023-01-25T05:10:09.148Z,103133.66
2023-01-25T05:12:37.860Z,103135.44
2023-01-25T05:15:08.016Z,103116.97
2023-01-25T05:17:37.387Z,103118.78
2023-01-25T05:20:08.249Z,103131.00
2023-01-25T05:22:36.581Z,103116.19
2023-01-25T05:25:07.673Z,103120.59
2023-01-25T05:27:35.531Z,103112.69
2023-01-25T05:30:04.420Z,103113.59
2023-01-25T05:32:33.077Z,103104.81
2023-01-25T05:35:01.795Z,103101.31
2023-01-25T05:37:31.934Z,103091.63
2023-01-25T05:40:01.482Z,103086.34
2023-01-25T05:42:30.158Z,103095.19
2023-01-25T05:44:58.757Z,103080.97
2023-01-25T05:47:27.382Z,103079.31
2023-01-25T05:49:56.319Z,103077.47
2023-01-25T05:52:25.013Z,103068.78
2023-01-25T05:54:55.363Z,103062.53
2023-01-25T05:57:23.705Z,103070.44
2023-01-25T05:59:52.407Z,103073.06
2023-01-25T06:02:21.109Z,103077.47
2023-01-25T06:04:50.173Z,103060.72
2023-01-25T06:07:18.747Z,103069.56
2023-01-25T06:09:47.432Z,103066.06
2023-01-25T06:12:17.843Z,103065.16
2023-01-25T06:14:48.562Z,103066.03
2023-01-25T06:17:17.535Z,103072.22
2023-01-25T06:19:46.598Z,103070.53
2023-01-25T06:22:15.364Z,103071.41
2023-01-25T06:24:44.133Z,103070.53
2023-01-25T06:27:12.936Z,103075.81
2023-01-25T06:29:43.864Z,103087.25
2023-01-25T06:32:12.765Z,103098.59
2023-01-25T06:34:41.527Z,103091.63
2023-01-25T06:37:10.189Z,103088.88
2023-01-25T06:39:38.858Z,103103.03
2023-01-25T06:42:07.254Z,103090.72
2023-01-25T06:44:36.381Z,103083.72
2023-01-25T06:47:07.025Z,103081.88
2023-01-25T06:49:36.687Z,103075.69
2023-01-25T06:52:05.994Z,103074.84
2023-01-25T06:54:36.017Z,103082.75
2023-01-25T06:57:05.118Z,103061.78
2023-01-25T06:59:33.839Z,103061.78
2023-01-25T07:02:02.936Z,103065.03
2023-01-25T07:04:34.317Z,103066.00
2023-01-25T07:07:03.175Z,103069.56
2023-01-25T07:09:31.848Z,103060.81
2023-01-25T07:12:00.486Z,103054.53
2023-01-25T07:14:29.276Z,103039.78
2023-01-25T07:16:58.518Z,103033.59
2023-01-25T07:19:27.355Z,103035.38
2023-01-25T07:21:57.992Z,103015.09
2023-01-25T07:24:29.409Z,103005.53
2023-01-25T07:26:59.211Z,102987.91
2023-01-25T07:29:27.806Z,102979.22
2023-01-25T07:31:58.378Z,102969.59
2023-01-25T07:34:29.081Z,102976.59
2023-01-25T07:36:59.409Z,102963.28
2023-01-25T07:39:29.195Z,102965.06
2023-01-25T07:41:58.523Z,102978.22
2023-01-25T07:44:27.310Z,102985.38
2023-01-25T07:46:57.142Z,102987.91
2023-01-25T07:49:29.391Z,102974.72
2023-01-25T07:52:01.839Z,102974.78
2023-01-25T07:54:31.008Z,102962.47
2023-01-25T07:56:59.684Z,102963.34
2023-01-25T07:59:29.313Z,102952.16
2023-01-25T08:01:58.896Z,102940.78
2023-01-25T08:04:27.806Z,102946.88
2023-01-25T08:07:00.275Z,102961.97
2023-01-25T08:09:39.190Z,102963.53
2023-01-25T08:12:09.397Z,102960.06
2023-01-25T08:14:39.097Z,102967.84
2023-01-25T08:17:10.269Z,102961.81
2023-01-25T08:19:38.910Z,102948.44
2023-01-25T08:22:10.542Z,102940.69
2023-01-25T08:24:40.610Z,102952.88
2023-01-25T08:27:10.979Z,102960.94
2023-01-25T08:29:40.828Z,102967.91
2023-01-25T08:32:10.051Z,102970.59
2023-01-25T08:34:40.650Z,102980.16
2023-01-25T08:37:11.286Z,102989.88
2023-01-25T08:39:39.849Z,102965.31
2023-01-25T08:42:08.950Z,102968.13
2023-01-25T08:44:38.682Z,102961.00
2023-01-25T08:47:11.282Z,102951.44
2023-01-25T08:49:41.272Z,102940.00
2023-01-25T08:52:15.451Z,102943.47
2023-01-25T08:54:44.651Z,102947.06
2023-01-25T08:57:13.380Z,102924.13
2023-01-25T08:59:41.914Z,102915.31
2023-01-25T09:02:13.289Z,102917.19
2023-01-25T09:04:41.940Z,102917.19
2023-01-25T09:07:12.219Z,102919.91
2023-01-25T09:09:40.615Z,102927.75
2023-01-25T09:12:11.126Z,102937.28
2023-01-25T09:14:40.835Z,102941.69
2023-01-25T09:17:11.243Z,102938.16
2023-01-25T09:19:42.868Z,102937.06
2023-01-25T09:22:13.310Z,102938.00
2023-01-25T09:24:42.138Z,102954.66
2023-01-25T09:27:11.161Z,102967.81
2023-01-25T09:29:43.745Z,102983.63
2023-01-25T09:32:15.363Z,102985.25
2023-01-25T09:34:44.624Z,102975.56
2023-01-25T09:37:15.541Z,102967.53
2023-01-25T09:39:44.906Z,102969.31
2023-01-25T09:42:39.368Z,102961.41
2023-01-25T09:45:17.211Z,102946.47
2023-01-25T09:47:52.856Z,102947.38
2023-01-25T09:50:35.096Z,102951.72
2023-01-25T09:53:24.591Z,102964.97
2023-01-25T09:55:59.679Z,102977.38
2023-01-25T09:58:34.495Z,102971.16
2023-01-25T10:01:38.636Z,102971.38
2023-01-25T10:04:16.491Z,102950.47
2023-01-25T10:06:59.737Z,102940.91
2023-01-25T10:09:44.236Z,102937.44
2023-01-25T10:12:21.063Z,102922.41
2023-01-25T10:14:51.007Z,102926.09
2023-01-25T10:17:31.679Z,102928.63
2023-01-25T10:20:17.767Z,102933.09
2023-01-25T10:22:52.926Z,102940.94
2023-01-25T10:25:31.067Z,102960.19
2023-01-25T10:28:16.306Z,102986.41
2023-01-25T10:30:54.425Z,102981.16
2023-01-25T10:33:23.475Z,102995.09
2023-01-25T10:35:52.165Z,102996.78
2023-01-25T10:38:27.044Z,102995.88
2023-01-25T10:41:02.559Z,103005.41
2023-01-25T10:43:31.732Z,103006.97
2023-01-25T10:46:00.773Z,103004.34
2023-01-25T10:48:35.746Z,103004.34
2023-01-25T10:51:04.749Z,102996.50
2023-01-25T10:53:36.115Z,102990.31
2023-01-25T10:56:26.085Z,102998.16
2023-01-25T10:59:09.775Z,103000.75
2023-01-25T11:01:38.637Z,102996.34
2023-01-25T11:04:32.512Z,103010.38
2023-01-25T11:07:03.370Z,103004.19
2023-01-25T11:09:38.272Z,103005.88
2023-01-25T11:12:20.107Z,103005.00
2023-01-25T11:14:51.323Z,103012.00
2023-01-25T11:17:27.895Z,103004.84
2023-01-25T11:20:20.780Z,103002.22
2023-01-25T11:22:55.156Z,103004.84
2023-01-25T11:25:29.333Z,103002.19
2023-01-25T11:28:23.562Z,103009.09
2023-01-25T11:30:54.887Z,103018.75
2023-01-25T11:33:28.371Z,103034.38
2023-01-25T11:36:27.875Z,103019.31
2023-01-25T11:39:28.299Z,103025.59
2023-01-25T11:42:11.299Z,103028.53
2023-01-25T11:45:05.489Z,103031.47
2023-01-25T11:47:50.143Z,103027.97
2023-01-25T11:50:28.737Z,103030.53
2023-01-25T11:53:17.345Z,103039.09
2023-01-25T11:55:56.277Z,103025.75
2023-01-25T11:58:42.976Z,103027.53
2023-01-25T12:01:23.571Z,103031.94
2023-01-25T12:04:19.606Z,103029.19
2023-01-25T12:07:00.246Z,103027.38
2023-01-25T12:09:45.716Z,103021.44
2023-01-25T12:12:23.417Z,103021.41
2023-01-25T12:15:08.841Z,103029.34
2023-01-25T12:17:51.549Z,103024.13
2023-01-25T12:20:42.944Z,103012.97
2023-01-25T12:23:26.909Z,103005.91
2023-01-25T12:26:14.843Z,102993.28
2023-01-25T12:28:46.519Z,102990.63
2023-01-25T12:31:22.144Z,103000.25
2023-01-25T12:33:59.104Z,102993.06
2023-01-25T12:36:33.623Z,102990.28
2023-01-25T12:39:06.905Z,102976.47
2023-01-25T12:41:42.427Z,102970.19
2023-01-25T12:44:20.381Z,102966.47
2023-01-25T12:46:59.611Z,102969.94
2023-01-25T12:49:38.575Z,102963.00
2023-01-25T12:52:13.800Z,102958.72
2023-01-25T12:54:44.498Z,102968.53
2023-01-25T12:57:23.625Z,102950.19
2023-01-25T13:00:02.695Z,102947.31
2023-01-25T13:02:51.477Z,102936.47
2023-01-25T13:05:31.393Z,102942.56
2023-01-25T13:08:23.078Z,102949.88
2023-01-25T13:11:03.713Z,102953.94
2023-01-25T13:13:33.790Z,102946.34
2023-01-25T13:16:33.349Z,102945.47
2023-01-25T13:19:01.964Z,102943.38
2023-01-25T13:21:47.703Z,102935.34
2023-01-25T13:24:20.312Z,102914.63
2023-01-25T13:27:01.835Z,102902.66
2023-01-25T13:29:56.649Z,102891.78
2023-01-25T13:33:07.591Z,102892.75
2023-01-25T13:35:45.344Z,102901.91
2023-01-25T13:38:39.427Z,102895.25
2023-01-25T13:41:17.544Z,102900.91
2023-01-25T13:43:51.386Z,102890.16
2023-01-25T13:46:25.557Z,102894.03
2023-01-25T13:49:11.647Z,102889.53
2023-01-25T13:51:42.469Z,102887.50
2023-01-25T13:54:19.370Z,102884.88
2023-01-25T13:56:48.408Z,102887.34
2023-01-25T13:59:28.292Z,102885.22
2023-01-25T14:01:57.591Z,102903.03
2023-01-25T14:04:26.618Z,102898.34
2023-01-25T14:06:59.739Z,102887.16
2023-01-25T14:09:31.236Z,102885.41
2023-01-25T14:12:03.988Z,102881.19
2023-01-25T14:14:34.634Z,102875.28
2023-01-25T14:17:21.329Z,102881.88
2023-01-25T14:19:51.874Z,102883.63
2023-01-25T14:22:26.320Z,102883.03
2023-01-25T14:25:10.235Z,102875.38
2023-01-25T14:27:47.672Z,102893.44
2023-01-25T14:30:26.029Z,102898.31
2023-01-25T14:32:57.912Z,102898.22
2023-01-25T14:35:42.237Z,102897.81
2023-01-25T14:38:27.835Z,102898.69
2023-01-25T14:41:07.200Z,102890.16
2023-01-25T14:43:39.205Z,102892.63
2023-01-25T14:46:21.911Z,102898.50
2023-01-25T14:48:52.260Z,102903.28
2023-01-25T14:51:29.416Z,102902.19
2023-01-25T14:54:03.137Z,102911.81
2023-01-25T14:56:42.550Z,102914.09
2023-01-25T14:59:27.201Z,102910.47
2023-01-25T15:02:01.595Z,102909.81
2023-01-25T15:04:44.379Z,102906.38
2023-01-25T15:07:44.791Z,102917.09
2023-01-25T15:10:20.168Z,102920.13
2023-01-25T15:13:13.995Z,102924.44
2023-01-25T15:15:55.625Z,102928.16
2023-01-25T15:18:44.141Z,102912.59
2023-01-25T15:21:14.533Z,102918.00
2023-01-25T15:23:44.798Z,102912.81
2023-01-25T15:26:21.367Z,102912.38
2023-01-25T15:28:53.446Z,102914.28
2023-01-25T15:31:26.445Z,102913.03
2023-01-25T15:33:55.780Z,102914.09
2023-01-25T15:36:24.794Z,102933.47
2023-01-25T15:38:53.710Z,102932.38
2023-01-25T15:41:22.567Z,102936.19
2023-01-25T15:43:53.376Z,102927.22
2023-01-25T15:46:25.251Z,102938.19
2023-01-25T15:48:54.783Z,102937.56
2023-01-25T15:51:23.709Z,102931.88
2023-01-25T15:53:52.368Z,102932.34
2023-01-25T15:56:23.120Z,102927.31
2023-01-25T15:58:55.500Z,102929.09
2023-01-25T16:01:27.826Z,102932.72
2023-01-25T16:03:57.706Z,102932.94
2023-01-25T16:06:37.540Z,102940.22
2023-01-25T16:09:15.646Z,102936.97
2023-01-25T16:11:51.533Z,102940.56
2023-01-25T16:14:24.203Z,102947.75
2023-01-25T16:16:55.982Z,102950.50
2023-01-25T16:19:26.401Z,102969.94
2023-01-25T16:21:55.210Z,102976.22
2023-01-25T16:24:24.020Z,102979.00
2023-01-25T16:26:55.878Z,102984.47
2023-01-25T16:29:27.100Z,102985.56
2023-01-25T16:31:56.446Z,102976.06
2023-01-25T16:34:25.180Z,102981.66
2023-01-25T16:36:54.487Z,102976.59
2023-01-25T16:39:35.197Z,102981.31
2023-01-25T16:42:04.153Z,102984.94
2023-01-25T16:44:34.383Z,102968.47
2023-01-25T16:47:04.206Z,102970.44
2023-01-25T16:49:34.011Z,102976.69
2023-01-25T16:52:04.552Z,102971.66
2023-01-25T16:54:33.777Z,102983.13
2023-01-25T16:57:20.607Z,102984.06
2023-01-25T16:59:52.496Z,103003.41
2023-01-25T17:02:21.365Z,103007.94
2023-01-25T17:04:50.099Z,103015.03
2023-01-25T17:07:19.183Z,103017.66
2023-01-25T17:09:47.896Z,103013.31
2023-01-25T17:12:16.458Z,103013.31
2023-01-25T17:14:45.297Z,103008.13
2023-01-25T17:17:15.774Z,103004.69
2023-01-25T17:19:44.673Z,103010.88
2023-01-25T17:22:14.297Z,103007.59
2023-01-25T17:24:42.959Z,103009.41
2023-01-25T17:27:11.885Z,103015.69
2023-01-25T17:29:40.701Z,103021.00
2023-01-25T17:32:09.905Z,103036.91
2023-01-25T17:34:40.069Z,103044.84
2023-01-25T17:37:09.365Z,103052.78
2023-01-25T17:39:38.173Z,103051.97
2023-01-25T17:42:09.517Z,103049.44
2023-01-25T17:44:38.500Z,103045.97
2023-01-25T17:47:07.469Z,103053.97
2023-01-25T17:49:37.326Z,103036.47
2023-01-25T17:52:08.895Z,103039.22
2023-01-25T17:54:40.533Z,103043.66
2023-01-25T17:57:11.586Z,103043.75
2023-01-25T17:59:41.122Z,103043.91
2023-01-25T18:02:12.007Z,103047.53
2023-01-25T18:04:41.437Z,103052.75
2023-01-25T18:07:12.277Z,103052.00
2023-01-25T18:09:40.964Z,103045.13
2023-01-25T18:12:09.691Z,103052.16
2023-01-25T18:14:38.369Z,103047.84
2023-01-25T18:17:07.355Z,103054.88
2023-01-25T18:19:55.331Z,103061.06
2023-01-25T18:22:34.056Z,103074.19
2023-01-25T18:25:03.807Z,103071.50
2023-01-25T18:27:32.630Z,103064.53
2023-01-25T18:30:04.297Z,103064.53
2023-01-25T18:32:34.516Z,103072.41
2023-01-25T18:35:04.601Z,103077.63
2023-01-25T18:37:43.994Z,103075.97
2023-01-25T18:40:15.162Z,103064.63
2023-01-25T18:42:46.231Z,103069.03
2023-01-25T18:45:15.050Z,103047.22
2023-01-25T18:47:43.881Z,103063.03
2023-01-25T18:50:14.465Z,103062.19
2023-01-25T18:52:44.919Z,103066.66
2023-01-25T18:55:14.675Z,103055.31
2023-01-25T18:57:44.405Z,103076.34
2023-01-25T19:00:15.431Z,103077.28
2023-01-25T19:02:44.236Z,103086.03
2023-01-25T19:05:14.222Z,103083.47
2023-01-25T19:07:44.592Z,103072.16
2023-01-25T19:10:13.532Z,103060.00
2023-01-25T19:12:42.223Z,103061.88
2023-01-25T19:15:11.875Z,103054.97
2023-01-25T19:17:40.728Z,103053.25
2023-01-25T19:20:10.834Z,103061.16
2023-01-25T19:22:40.873Z,103081.25
2023-01-25T19:25:11.937Z,103085.72
2023-01-25T19:27:40.793Z,103098.88
2023-01-25T19:30:10.895Z,103105.94
2023-01-25T19:32:39.762Z,103101.59
2023-01-25T19:35:09.204Z,103104.31
2023-01-25T19:37:38.003Z,103092.09
2023-01-25T19:40:07.729Z,103083.44
2023-01-25T19:42:37.756Z,103074.72
2023-01-25T19:45:07.633Z,103079.16
2023-01-25T19:47:37.279Z,103078.41
2023-01-25T19:50:07.016Z,103087.22
2023-01-25T19:52:36.646Z,103094.22
2023-01-25T19:55:08.011Z,103092.47
2023-01-25T19:57:38.695Z,103095.97
2023-01-25T20:00:08.636Z,103103.88
2023-01-25T20:02:37.357Z,103103.16
2023-01-25T20:05:06.634Z,103104.94
2023-01-25T20:07:35.213Z,103096.38
2023-01-25T20:10:03.869Z,103091.28
2023-01-25T20:12:32.582Z,103094.78
2023-01-25T20:15:05.091Z,103091.25
2023-01-25T20:17:34.779Z,103096.53
2023-01-25T20:20:03.417Z,103098.34
2023-01-25T20:22:32.429Z,103093.09
2023-01-25T20:25:01.547Z,103095.75
2023-01-25T20:27:30.211Z,103086.09
2023-01-25T20:29:58.992Z,103081.72
2023-01-25T20:32:33.153Z,103079.09
2023-01-25T20:35:03.933Z,103066.94
2023-01-25T20:37:34.715Z,103079.22
2023-01-25T20:40:03.944Z,103097.53
2023-01-25T20:42:32.702Z,103115.00
2023-01-25T20:45:01.439Z,103138.59
2023-01-25T20:47:31.717Z,103135.97
2023-01-25T20:50:00.355Z,103147.41
2023-01-25T20:52:29.495Z,103148.31
2023-01-25T20:54:59.275Z,103146.56
2023-01-25T20:57:27.963Z,103140.44
2023-01-25T20:59:57.335Z,103126.47
2023-01-25T21:02:26.024Z,103126.38
2023-01-25T21:04:56.258Z,103116.69
2023-01-25T21:07:24.984Z,103112.25
2023-01-25T21:09:54.451Z,103101.78
2023-01-25T21:12:23.409Z,103092.19
2023-01-25T21:14:52.965Z,103104.38
2023-01-25T21:17:22.928Z,103100.88
2023-01-25T21:19:51.631Z,103111.34
2023-01-25T21:22:22.443Z,103107.88
2023-01-25T21:24:51.924Z,103101.81
2023-01-25T21:27:23.204Z,103104.47
2023-01-25T21:29:52.899Z,103116.72
2023-01-25T21:32:23.573Z,103135.13
2023-01-25T21:34:52.269Z,103156.00
2023-01-25T21:37:22.758Z,103159.59
2023-01-25T21:39:52.944Z,103158.00
2023-01-25T21:42:21.558Z,103164.13
2023-01-25T21:45:09.417Z,103159.78
2023-01-25T21:47:43.102Z,103155.56
2023-01-25T21:50:30.042Z,103146.03
2023-01-25T21:53:00.069Z,103153.03
2023-01-25T21:55:28.837Z,103152.13
2023-01-25T21:57:58.688Z,103132.97
2023-01-25T22:00:27.664Z,103130.34
2023-01-25T22:02:56.300Z,103131.16
2023-01-25T22:05:24.796Z,103142.47
2023-01-25T22:07:53.529Z,103157.25
2023-01-25T22:10:23.568Z,103170.31
2023-01-25T22:12:52.455Z,103175.50
2023-01-25T22:15:21.485Z,103179.88
2023-01-25T22:17:50.092Z,103171.16
2023-01-25T22:20:19.138Z,103172.16
2023-01-25T22:22:47.928Z,103167.72
2023-01-25T22:25:17.581Z,103163.31
2023-01-25T22:27:55.382Z,103163.31
2023-01-25T22:30:24.085Z,103167.63
2023-01-25T22:32:53.749Z,103181.59
2023-01-25T22:35:22.346Z,103180.72
2023-01-25T22:37:58.002Z,103186.91
2023-01-25T22:40:27.565Z,103184.28
2023-01-25T22:42:57.719Z,103179.88
2023-01-25T22:45:26.247Z,103175.38
2023-01-25T22:47:54.778Z,103174.41
2023-01-25T22:50:24.699Z,103170.81
2023-01-25T22:52:53.537Z,103178.56
2023-01-25T22:55:22.290Z,103174.97
2023-01-25T22:57:50.920Z,103182.75
2023-01-25T23:00:22.250Z,103185.31
2023-01-25T23:02:51.162Z,103185.22
2023-01-25T23:05:22.016Z,103179.97
2023-01-25T23:07:51.904Z,103165.19
2023-01-25T23:10:21.070Z,103172.28
2023-01-25T23:12:49.857Z,103187.31
2023-01-25T23:15:20.808Z,103190.13
2023-01-25T23:18:08.076Z,103192.75
2023-01-25T23:20:37.335Z,103189.34
2023-01-25T23:23:06.323Z,103186.72
2023-01-25T23:25:35.114Z,103189.38
2023-01-25T23:28:03.770Z,103193.75
2023-01-25T23:30:35.598Z,103211.22
2023-01-25T23:33:10.337Z,103205.00
2023-01-25T23:35:39.318Z,103204.94
2023-01-25T23:38:15.639Z,103210.13
2023-01-25T23:40:44.361Z,103202.22
2023-01-25T23:43:13.200Z,103207.41
2023-01-25T23:45:45.286Z,103206.47
2023-01-25T23:48:14.949Z,103205.56
2023-01-25T23:50:43.778Z,103197.66
2023-01-25T23:53:12.529Z,103203.78
2023-01-25T23:55:41.120Z,103203.78
2023-01-25T23:58:09.835Z,103203.78
